sensor_id;sensor_type;location;lat;lon;timestamp;P1;durP1;ratioP1;P2;durP2;ratioP2
39924;SDS011;25592;49.986;11.618;2024-01-15T00:01:34;151.27;;;60.40;;
39924;SDS011;25592;49.986;11.618;2024-01-15T00:04:19;151.60;;;63.13;;
39924;SDS011;25592;49.986;11.618;2024-01-15T00:07:05;142.60;;;56.53;;
39924;SDS011;25592;49.986;11.618;2024-01-15T00:09:52;145.83;;;57.37;;
39924;SDS011;25592;49.986;11.618;2024-01-15T00:12:37;144.57;;;58.63;;
39924;SDS011;25592;49.986;11.618;2024-01-15T00:15:22;148.53;;;60.93;;
39924;SDS011;25592;49.986;11.618;2024-01-15T00:18:08;149.67;;;62.07;;
39924;SDS011;25592;49.986;11.618;2024-01-15T00:20:57;143.27;;;57.53;;
39924;SDS011;25592;49.986;11.618;2024-01-15T00:23:43;141.17;;;57.87;;
39924;SDS011;25592;49.986;11.618;2024-01-15T00:26:29;142.60;;;59.00;;
39924;SDS011;25592;49.986;11.618;2024-01-15T00:29:14;147.60;;;59.93;;
39924;SDS011;25592;49.986;11.618;2024-01-15T00:31:59;144.27;;;60.03;;
39924;SDS011;25592;49.986;11.618;2024-01-15T00:34:45;141.17;;;56.97;;
39924;SDS011;25592;49.986;11.618;2024-01-15T00:37:30;145.70;;;57.40;;
39924;SDS011;25592;49.986;11.618;2024-01-15T00:40:16;146.50;;;59.10;;
39924;SDS011;25592;49.986;11.618;2024-01-15T00:43:01;141.43;;;57.30;;
39924;SDS011;25592;49.986;11.618;2024-01-15T00:45:47;138.90;;;55.87;;
39924;SDS011;25592;49.986;11.618;2024-01-15T00:48:33;141.67;;;56.63;;
39924;SDS011;25592;49.986;11.618;2024-01-15T00:51:18;141.30;;;56.23;;
39924;SDS011;25592;49.986;11.618;2024-01-15T00:54:04;146.20;;;57.40;;
39924;SDS011;25592;49.986;11.618;2024-01-15T00:56:50;155.87;;;62.93;;
39924;SDS011;25592;49.986;11.618;2024-01-15T00:59:36;148.10;;;56.60;;
39924;SDS011;25592;49.986;11.618;2024-01-15T01:02:21;152.43;;;61.87;;
39924;SDS011;25592;49.986;11.618;2024-01-15T01:05:07;146.57;;;57.17;;
39924;SDS011;25592;49.986;11.618;2024-01-15T01:07:52;148.77;;;58.53;;
39924;SDS011;25592;49.986;11.618;2024-01-15T01:10:38;156.53;;;61.33;;
39924;SDS011;25592;49.986;11.618;2024-01-15T01:13:23;146.73;;;57.27;;
39924;SDS011;25592;49.986;11.618;2024-01-15T01:16:09;154.30;;;62.57;;
39924;SDS011;25592;49.986;11.618;2024-01-15T01:18:54;146.17;;;55.57;;
39924;SDS011;25592;49.986;11.618;2024-01-15T01:21:40;159.70;;;64.43;;
39924;SDS011;25592;49.986;11.618;2024-01-15T01:24:25;168.07;;;63.77;;
39924;SDS011;25592;49.986;11.618;2024-01-15T01:27:11;157.97;;;61.57;;
39924;SDS011;25592;49.986;11.618;2024-01-15T01:29:57;150.27;;;59.87;;
39924;SDS011;25592;49.986;11.618;2024-01-15T01:32:42;159.17;;;61.03;;
39924;SDS011;25592;49.986;11.618;2024-01-15T01:35:28;154.77;;;59.63;;
39924;SDS011;25592;49.986;11.618;2024-01-15T01:38:13;153.57;;;60.23;;
39924;SDS011;25592;49.986;11.618;2024-01-15T01:40:59;147.60;;;57.37;;
39924;SDS011;25592;49.986;11.618;2024-01-15T01:43:44;149.27;;;59.57;;
39924;SDS011;25592;49.986;11.618;2024-01-15T01:46:30;149.20;;;57.33;;
39924;SDS011;25592;49.986;11.618;2024-01-15T01:49:16;152.00;;;58.30;;
39924;SDS011;25592;49.986;11.618;2024-01-15T01:52:02;152.40;;;63.60;;
39924;SDS011;25592;49.986;11.618;2024-01-15T01:54:49;152.70;;;57.60;;
39924;SDS011;25592;49.986;11.618;2024-01-15T01:57:36;147.20;;;56.30;;
39924;SDS011;25592;49.986;11.618;2024-01-15T02:00:22;154.73;;;62.60;;
39924;SDS011;25592;49.986;11.618;2024-01-15T02:03:08;153.67;;;61.37;;
39924;SDS011;25592;49.986;11.618;2024-01-15T02:05:54;149.20;;;57.47;;
39924;SDS011;25592;49.986;11.618;2024-01-15T02:08:42;147.87;;;57.37;;
39924;SDS011;25592;49.986;11.618;2024-01-15T02:11:29;161.50;;;60.93;;
39924;SDS011;25592;49.986;11.618;2024-01-15T02:14:14;153.43;;;59.53;;
39924;SDS011;25592;49.986;11.618;2024-01-15T02:17:00;147.20;;;57.03;;
39924;SDS011;25592;49.986;11.618;2024-01-15T02:19:45;148.60;;;57.47;;
39924;SDS011;25592;49.986;11.618;2024-01-15T02:22:31;161.07;;;60.23;;
39924;SDS011;25592;49.986;11.618;2024-01-15T02:25:16;162.60;;;62.33;;
39924;SDS011;25592;49.986;11.618;2024-01-15T02:28:02;164.17;;;61.13;;
39924;SDS011;25592;49.986;11.618;2024-01-15T02:30:48;162.90;;;59.70;;
39924;SDS011;25592;49.986;11.618;2024-01-15T02:33:33;164.63;;;60.57;;
39924;SDS011;25592;49.986;11.618;2024-01-15T02:36:19;165.90;;;61.47;;
39924;SDS011;25592;49.986;11.618;2024-01-15T02:39:05;170.23;;;60.13;;
39924;SDS011;25592;49.986;11.618;2024-01-15T02:41:50;179.00;;;60.10;;
39924;SDS011;25592;49.986;11.618;2024-01-15T02:44:36;167.03;;;59.30;;
39924;SDS011;25592;49.986;11.618;2024-01-15T02:47:21;175.50;;;65.27;;
39924;SDS011;25592;49.986;11.618;2024-01-15T02:50:07;171.37;;;60.83;;
39924;SDS011;25592;49.986;11.618;2024-01-15T02:52:52;171.43;;;60.03;;
39924;SDS011;25592;49.986;11.618;2024-01-15T02:55:37;173.20;;;61.07;;
39924;SDS011;25592;49.986;11.618;2024-01-15T02:58:23;169.40;;;61.47;;
39924;SDS011;25592;49.986;11.618;2024-01-15T03:01:09;169.37;;;61.90;;
39924;SDS011;25592;49.986;11.618;2024-01-15T03:03:54;167.63;;;60.90;;
39924;SDS011;25592;49.986;11.618;2024-01-15T03:06:40;185.17;;;66.37;;
39924;SDS011;25592;49.986;11.618;2024-01-15T03:09:26;179.50;;;61.35;;
39924;SDS011;25592;49.986;11.618;2024-01-15T03:12:11;183.10;;;65.37;;
39924;SDS011;25592;49.986;11.618;2024-01-15T03:14:56;169.30;;;61.90;;
39924;SDS011;25592;49.986;11.618;2024-01-15T03:17:42;167.53;;;60.20;;
39924;SDS011;25592;49.986;11.618;2024-01-15T03:20:28;182.87;;;68.63;;
39924;SDS011;25592;49.986;11.618;2024-01-15T03:23:13;171.23;;;64.33;;
39924;SDS011;25592;49.986;11.618;2024-01-15T03:25:59;174.20;;;62.77;;
39924;SDS011;25592;49.986;11.618;2024-01-15T03:28:44;169.13;;;61.87;;
39924;SDS011;25592;49.986;11.618;2024-01-15T03:31:30;172.63;;;61.23;;
39924;SDS011;25592;49.986;11.618;2024-01-15T03:34:15;168.57;;;60.30;;
39924;SDS011;25592;49.986;11.618;2024-01-15T03:37:01;172.47;;;61.03;;
39924;SDS011;25592;49.986;11.618;2024-01-15T03:39:46;167.13;;;61.17;;
39924;SDS011;25592;49.986;11.618;2024-01-15T03:42:32;169.80;;;61.27;;
39924;SDS011;25592;49.986;11.618;2024-01-15T03:45:17;173.70;;;64.67;;
39924;SDS011;25592;49.986;11.618;2024-01-15T03:48:02;168.67;;;60.13;;
39924;SDS011;25592;49.986;11.618;2024-01-15T03:50:48;166.20;;;59.87;;
39924;SDS011;25592;49.986;11.618;2024-01-15T03:53:34;149.37;;;57.23;;
39924;SDS011;25592;49.986;11.618;2024-01-15T03:56:19;149.13;;;59.20;;
39924;SDS011;25592;49.986;11.618;2024-01-15T03:59:04;155.83;;;58.53;;
39924;SDS011;25592;49.986;11.618;2024-01-15T04:01:50;148.60;;;56.93;;
39924;SDS011;25592;49.986;11.618;2024-01-15T04:04:35;148.57;;;58.43;;
39924;SDS011;25592;49.986;11.618;2024-01-15T04:07:21;154.70;;;57.47;;
39924;SDS011;25592;49.986;11.618;2024-01-15T04:10:06;150.07;;;59.20;;
39924;SDS011;25592;49.986;11.618;2024-01-15T04:12:52;146.97;;;55.83;;
39924;SDS011;25592;49.986;11.618;2024-01-15T04:15:38;144.77;;;56.87;;
39924;SDS011;25592;49.986;11.618;2024-01-15T04:18:23;146.97;;;57.20;;
39924;SDS011;25592;49.986;11.618;2024-01-15T04:21:09;144.20;;;54.43;;
39924;SDS011;25592;49.986;11.618;2024-01-15T04:23:54;145.07;;;56.50;;
39924;SDS011;25592;49.986;11.618;2024-01-15T04:26:39;144.07;;;55.57;;
39924;SDS011;25592;49.986;11.618;2024-01-15T04:29:25;145.17;;;57.80;;
39924;SDS011;25592;49.986;11.618;2024-01-15T04:32:10;148.87;;;63.90;;
39924;SDS011;25592;49.986;11.618;2024-01-15T04:34:56;143.23;;;54.03;;
39924;SDS011;25592;49.986;11.618;2024-01-15T04:37:41;145.33;;;57.37;;
39924;SDS011;25592;49.986;11.618;2024-01-15T04:40:27;145.57;;;56.83;;
39924;SDS011;25592;49.986;11.618;2024-01-15T04:43:12;147.33;;;57.67;;
39924;SDS011;25592;49.986;11.618;2024-01-15T04:45:57;151.07;;;61.23;;
39924;SDS011;25592;49.986;11.618;2024-01-15T04:48:43;144.57;;;56.63;;
39924;SDS011;25592;49.986;11.618;2024-01-15T04:51:29;145.13;;;57.73;;
39924;SDS011;25592;49.986;11.618;2024-01-15T04:54:14;147.53;;;58.63;;
39924;SDS011;25592;49.986;11.618;2024-01-15T04:57:03;148.03;;;59.20;;
39924;SDS011;25592;49.986;11.618;2024-01-15T04:59:49;145.17;;;55.77;;
39924;SDS011;25592;49.986;11.618;2024-01-15T05:02:34;145.17;;;57.07;;
39924;SDS011;25592;49.986;11.618;2024-01-15T05:05:19;145.07;;;55.83;;
39924;SDS011;25592;49.986;11.618;2024-01-15T05:08:05;149.43;;;59.03;;
39924;SDS011;25592;49.986;11.618;2024-01-15T05:10:51;150.27;;;58.10;;
39924;SDS011;25592;49.986;11.618;2024-01-15T05:13:36;148.60;;;57.27;;
39924;SDS011;25592;49.986;11.618;2024-01-15T05:16:22;150.13;;;56.63;;
39924;SDS011;25592;49.986;11.618;2024-01-15T05:19:07;154.90;;;60.73;;
39924;SDS011;25592;49.986;11.618;2024-01-15T05:21:54;167.43;;;66.37;;
39924;SDS011;25592;49.986;11.618;2024-01-15T05:24:40;148.57;;;59.83;;
39924;SDS011;25592;49.986;11.618;2024-01-15T05:27:25;149.60;;;59.43;;
39924;SDS011;25592;49.986;11.618;2024-01-15T05:30:11;147.70;;;56.47;;
39924;SDS011;25592;49.986;11.618;2024-01-15T05:32:56;156.20;;;60.77;;
39924;SDS011;25592;49.986;11.618;2024-01-15T05:35:46;148.87;;;57.97;;
39924;SDS011;25592;49.986;11.618;2024-01-15T05:38:31;156.37;;;59.90;;
39924;SDS011;25592;49.986;11.618;2024-01-15T05:41:17;154.37;;;59.93;;
39924;SDS011;25592;49.986;11.618;2024-01-15T05:44:02;152.00;;;59.97;;
39924;SDS011;25592;49.986;11.618;2024-01-15T05:46:48;149.17;;;58.80;;
39924;SDS011;25592;49.986;11.618;2024-01-15T05:49:33;149.70;;;58.10;;
39924;SDS011;25592;49.986;11.618;2024-01-15T05:52:19;156.17;;;60.73;;
39924;SDS011;25592;49.986;11.618;2024-01-15T05:55:05;151.40;;;57.80;;
39924;SDS011;25592;49.986;11.618;2024-01-15T05:57:51;152.47;;;60.40;;
39924;SDS011;25592;49.986;11.618;2024-01-15T06:00:36;168.33;;;64.93;;
39924;SDS011;25592;49.986;11.618;2024-01-15T06:03:23;166.33;;;58.80;;
39924;SDS011;25592;49.986;11.618;2024-01-15T06:06:08;166.90;;;59.87;;
39924;SDS011;25592;49.986;11.618;2024-01-15T06:08:54;167.37;;;61.50;;
39924;SDS011;25592;49.986;11.618;2024-01-15T06:11:39;167.73;;;60.87;;
39924;SDS011;25592;49.986;11.618;2024-01-15T06:14:25;163.90;;;60.33;;
39924;SDS011;25592;49.986;11.618;2024-01-15T06:17:10;165.97;;;60.53;;
39924;SDS011;25592;49.986;11.618;2024-01-15T06:19:56;166.03;;;61.53;;
39924;SDS011;25592;49.986;11.618;2024-01-15T06:22:42;163.60;;;60.00;;
39924;SDS011;25592;49.986;11.618;2024-01-15T06:25:27;158.40;;;60.20;;
39924;SDS011;25592;49.986;11.618;2024-01-15T06:28:13;148.53;;;56.47;;
39924;SDS011;25592;49.986;11.618;2024-01-15T06:30:58;149.60;;;58.87;;
39924;SDS011;25592;49.986;11.618;2024-01-15T06:33:44;149.73;;;58.57;;
39924;SDS011;25592;49.986;11.618;2024-01-15T06:36:32;148.93;;;57.63;;
39924;SDS011;25592;49.986;11.618;2024-01-15T06:39:17;147.67;;;55.87;;
39924;SDS011;25592;49.986;11.618;2024-01-15T06:42:03;151.10;;;63.53;;
39924;SDS011;25592;49.986;11.618;2024-01-15T06:44:49;149.83;;;59.27;;
39924;SDS011;25592;49.986;11.618;2024-01-15T06:47:34;148.57;;;57.93;;
39924;SDS011;25592;49.986;11.618;2024-01-15T06:50:20;147.97;;;58.00;;
39924;SDS011;25592;49.986;11.618;2024-01-15T06:53:05;146.43;;;55.93;;
39924;SDS011;25592;49.986;11.618;2024-01-15T06:55:51;146.70;;;55.73;;
39924;SDS011;25592;49.986;11.618;2024-01-15T06:58:36;151.50;;;59.50;;
39924;SDS011;25592;49.986;11.618;2024-01-15T07:01:22;149.30;;;57.37;;
39924;SDS011;25592;49.986;11.618;2024-01-15T07:04:07;147.23;;;57.13;;
39924;SDS011;25592;49.986;11.618;2024-01-15T07:06:53;149.87;;;58.97;;
39924;SDS011;25592;49.986;11.618;2024-01-15T07:09:38;149.13;;;58.23;;
39924;SDS011;25592;49.986;11.618;2024-01-15T07:12:24;148.23;;;56.67;;
39924;SDS011;25592;49.986;11.618;2024-01-15T07:15:09;152.70;;;58.83;;
39924;SDS011;25592;49.986;11.618;2024-01-15T07:17:55;148.00;;;58.00;;
39924;SDS011;25592;49.986;11.618;2024-01-15T07:20:40;149.97;;;56.23;;
39924;SDS011;25592;49.986;11.618;2024-01-15T07:23:26;150.77;;;59.40;;
39924;SDS011;25592;49.986;11.618;2024-01-15T07:26:14;149.10;;;57.43;;
39924;SDS011;25592;49.986;11.618;2024-01-15T07:29:00;147.60;;;56.37;;
39924;SDS011;25592;49.986;11.618;2024-01-15T07:31:49;154.10;;;59.87;;
39924;SDS011;25592;49.986;11.618;2024-01-15T07:34:35;151.90;;;59.93;;
39924;SDS011;25592;49.986;11.618;2024-01-15T07:37:21;148.83;;;57.00;;
39924;SDS011;25592;49.986;11.618;2024-01-15T07:40:08;154.13;;;58.47;;
39924;SDS011;25592;49.986;11.618;2024-01-15T07:42:54;151.53;;;56.90;;
39924;SDS011;25592;49.986;11.618;2024-01-15T07:45:39;152.53;;;59.33;;
39924;SDS011;25592;49.986;11.618;2024-01-15T07:48:30;153.97;;;59.87;;
39924;SDS011;25592;49.986;11.618;2024-01-15T07:51:16;155.73;;;58.93;;
39924;SDS011;25592;49.986;11.618;2024-01-15T07:54:01;154.60;;;58.53;;
39924;SDS011;25592;49.986;11.618;2024-01-15T07:56:59;161.27;;;62.00;;
39924;SDS011;25592;49.986;11.618;2024-01-15T07:59:46;162.43;;;60.87;;
39924;SDS011;25592;49.986;11.618;2024-01-15T08:02:32;148.27;;;57.03;;
39924;SDS011;25592;49.986;11.618;2024-01-15T08:05:21;147.50;;;56.47;;
39924;SDS011;25592;49.986;11.618;2024-01-15T08:08:07;148.43;;;57.87;;
39924;SDS011;25592;49.986;11.618;2024-01-15T08:10:52;155.50;;;60.33;;
39924;SDS011;25592;49.986;11.618;2024-01-15T08:13:38;148.67;;;57.67;;
39924;SDS011;25592;49.986;11.618;2024-01-15T08:16:23;148.20;;;57.37;;
39924;SDS011;25592;49.986;11.618;2024-01-15T08:19:10;147.70;;;56.77;;
39924;SDS011;25592;49.986;11.618;2024-01-15T08:21:55;150.70;;;59.90;;
39924;SDS011;25592;49.986;11.618;2024-01-15T08:24:41;155.50;;;72.40;;
39924;SDS011;25592;49.986;11.618;2024-01-15T08:27:26;154.13;;;60.67;;
39924;SDS011;25592;49.986;11.618;2024-01-15T08:30:12;148.30;;;57.13;;
39924;SDS011;25592;49.986;11.618;2024-01-15T08:32:58;150.67;;;60.27;;
39924;SDS011;25592;49.986;11.618;2024-01-15T08:35:55;149.60;;;59.20;;
39924;SDS011;25592;49.986;11.618;2024-01-15T08:38:40;153.63;;;60.03;;
39924;SDS011;25592;49.986;11.618;2024-01-15T08:41:25;151.97;;;59.93;;
39924;SDS011;25592;49.986;11.618;2024-01-15T08:44:11;149.80;;;56.90;;
39924;SDS011;25592;49.986;11.618;2024-01-15T08:46:57;148.13;;;56.30;;
39924;SDS011;25592;49.986;11.618;2024-01-15T08:49:42;167.70;;;60.63;;
39924;SDS011;25592;49.986;11.618;2024-01-15T08:52:30;164.80;;;59.93;;
39924;SDS011;25592;49.986;11.618;2024-01-15T08:55:15;169.37;;;61.67;;
39924;SDS011;25592;49.986;11.618;2024-01-15T08:58:01;171.13;;;61.67;;
39924;SDS011;25592;49.986;11.618;2024-01-15T09:00:46;150.07;;;57.90;;
39924;SDS011;25592;49.986;11.618;2024-01-15T09:03:32;147.53;;;55.97;;
39924;SDS011;25592;49.986;11.618;2024-01-15T09:06:18;152.87;;;60.13;;
39924;SDS011;25592;49.986;11.618;2024-01-15T09:09:05;149.20;;;58.37;;
39924;SDS011;25592;49.986;11.618;2024-01-15T09:11:51;153.23;;;58.60;;
39924;SDS011;25592;49.986;11.618;2024-01-15T09:14:37;150.30;;;59.57;;
39924;SDS011;25592;49.986;11.618;2024-01-15T09:17:22;149.47;;;58.27;;
39924;SDS011;25592;49.986;11.618;2024-01-15T09:20:13;149.87;;;58.77;;
39924;SDS011;25592;49.986;11.618;2024-01-15T09:22:58;150.20;;;58.57;;
39924;SDS011;25592;49.986;11.618;2024-01-15T09:25:44;159.30;;;60.60;;
39924;SDS011;25592;49.986;11.618;2024-01-15T09:28:29;150.63;;;58.87;;
39924;SDS011;25592;49.986;11.618;2024-01-15T09:31:15;148.57;;;57.47;;
39924;SDS011;25592;49.986;11.618;2024-01-15T09:34:02;151.77;;;59.33;;
39924;SDS011;25592;49.986;11.618;2024-01-15T09:36:48;146.87;;;54.90;;
39924;SDS011;25592;49.986;11.618;2024-01-15T09:39:34;149.67;;;57.90;;
39924;SDS011;25592;49.986;11.618;2024-01-15T09:42:19;164.53;;;61.90;;
39924;SDS011;25592;49.986;11.618;2024-01-15T09:45:06;159.73;;;59.73;;
39924;SDS011;25592;49.986;11.618;2024-01-15T09:47:52;152.73;;;60.03;;
39924;SDS011;25592;49.986;11.618;2024-01-15T09:50:38;152.73;;;57.73;;
39924;SDS011;25592;49.986;11.618;2024-01-15T09:53:23;154.23;;;58.97;;
39924;SDS011;25592;49.986;11.618;2024-01-15T09:56:10;152.80;;;57.57;;
39924;SDS011;25592;49.986;11.618;2024-01-15T09:58:55;155.73;;;60.47;;
39924;SDS011;25592;49.986;11.618;2024-01-15T10:01:42;151.53;;;58.00;;
39924;SDS011;25592;49.986;11.618;2024-01-15T10:04:28;160.13;;;65.33;;
39924;SDS011;25592;49.986;11.618;2024-01-15T10:07:15;152.70;;;59.17;;
39924;SDS011;25592;49.986;11.618;2024-01-15T10:10:04;154.37;;;59.63;;
39924;SDS011;25592;49.986;11.618;2024-01-15T10:12:50;161.17;;;58.27;;
39924;SDS011;25592;49.986;11.618;2024-01-15T10:15:37;156.93;;;60.53;;
39924;SDS011;25592;49.986;11.618;2024-01-15T10:18:23;151.17;;;57.53;;
39924;SDS011;25592;49.986;11.618;2024-01-15T10:21:09;159.13;;;61.70;;
39924;SDS011;25592;49.986;11.618;2024-01-15T10:23:54;154.30;;;60.13;;
39924;SDS011;25592;49.986;11.618;2024-01-15T10:26:40;153.47;;;58.80;;
39924;SDS011;25592;49.986;11.618;2024-01-15T10:29:25;151.73;;;58.57;;
39924;SDS011;25592;49.986;11.618;2024-01-15T10:32:11;153.03;;;61.20;;
39924;SDS011;25592;49.986;11.618;2024-01-15T10:34:56;150.10;;;58.07;;
39924;SDS011;25592;49.986;11.618;2024-01-15T10:37:42;150.67;;;57.63;;
39924;SDS011;25592;49.986;11.618;2024-01-15T10:40:27;150.80;;;57.77;;
39924;SDS011;25592;49.986;11.618;2024-01-15T10:43:13;151.43;;;58.77;;
39924;SDS011;25592;49.986;11.618;2024-01-15T10:45:59;157.87;;;61.50;;
39924;SDS011;25592;49.986;11.618;2024-01-15T10:48:45;151.97;;;59.57;;
39924;SDS011;25592;49.986;11.618;2024-01-15T10:51:31;152.00;;;59.70;;
39924;SDS011;25592;49.986;11.618;2024-01-15T10:54:16;150.57;;;57.53;;
39924;SDS011;25592;49.986;11.618;2024-01-15T10:57:02;151.03;;;59.30;;
39924;SDS011;25592;49.986;11.618;2024-01-15T10:59:48;150.57;;;57.93;;
39924;SDS011;25592;49.986;11.618;2024-01-15T11:02:34;151.03;;;59.13;;
39924;SDS011;25592;49.986;11.618;2024-01-15T11:05:21;148.37;;;55.40;;
39924;SDS011;25592;49.986;11.618;2024-01-15T11:08:07;157.33;;;61.53;;
39924;SDS011;25592;49.986;11.618;2024-01-15T11:10:53;148.90;;;57.67;;
39924;SDS011;25592;49.986;11.618;2024-01-15T11:13:40;148.93;;;59.60;;
39924;SDS011;25592;49.986;11.618;2024-01-15T11:16:28;150.23;;;57.73;;
39924;SDS011;25592;49.986;11.618;2024-01-15T11:25:15;153.13;;;59.83;;
39924;SDS011;25592;49.986;11.618;2024-01-15T11:28:03;149.47;;;59.03;;
39924;SDS011;25592;49.986;11.618;2024-01-15T11:30:49;152.33;;;60.43;;
39924;SDS011;25592;49.986;11.618;2024-01-15T11:33:34;161.50;;;60.50;;
39924;SDS011;25592;49.986;11.618;2024-01-15T11:36:20;152.20;;;59.33;;
39924;SDS011;25592;49.986;11.618;2024-01-15T11:42:14;156.73;;;65.10;;
39924;SDS011;25592;49.986;11.618;2024-01-15T11:45:00;148.47;;;57.67;;
39924;SDS011;25592;49.986;11.618;2024-01-15T11:50:57;153.20;;;59.63;;
39924;SDS011;25592;49.986;11.618;2024-01-15T11:53:45;149.93;;;57.80;;
39924;SDS011;25592;49.986;11.618;2024-01-15T11:56:33;152.70;;;58.90;;
39924;SDS011;25592;49.986;11.618;2024-01-15T11:59:19;152.63;;;59.83;;
39924;SDS011;25592;49.986;11.618;2024-01-15T12:02:05;155.13;;;59.87;;
39924;SDS011;25592;49.986;11.618;2024-01-15T12:04:51;151.30;;;60.17;;
39924;SDS011;25592;49.986;11.618;2024-01-15T12:07:36;153.77;;;63.00;;
39924;SDS011;25592;49.986;11.618;2024-01-15T12:10:22;152.00;;;58.03;;
39924;SDS011;25592;49.986;11.618;2024-01-15T12:15:57;157.93;;;60.60;;
39924;SDS011;25592;49.986;11.618;2024-01-15T12:18:47;154.97;;;61.23;;
39924;SDS011;25592;49.986;11.618;2024-01-15T12:21:33;150.33;;;57.77;;
39924;SDS011;25592;49.986;11.618;2024-01-15T12:24:18;152.90;;;59.13;;
39924;SDS011;25592;49.986;11.618;2024-01-15T12:27:04;152.50;;;60.93;;
39924;SDS011;25592;49.986;11.618;2024-01-15T12:29:50;151.87;;;60.00;;
39924;SDS011;25592;49.986;11.618;2024-01-15T12:32:35;151.67;;;60.77;;
39924;SDS011;25592;49.986;11.618;2024-01-15T12:35:23;151.10;;;58.93;;
39924;SDS011;25592;49.986;11.618;2024-01-15T12:38:11;151.40;;;58.50;;
39924;SDS011;25592;49.986;11.618;2024-01-15T12:40:57;152.23;;;59.90;;
39924;SDS011;25592;49.986;11.618;2024-01-15T12:43:42;154.40;;;60.97;;
39924;SDS011;25592;49.986;11.618;2024-01-15T12:46:28;152.97;;;60.73;;
39924;SDS011;25592;49.986;11.618;2024-01-15T12:49:14;152.20;;;58.80;;
39924;SDS011;25592;49.986;11.618;2024-01-15T12:52:00;151.87;;;59.83;;
39924;SDS011;25592;49.986;11.618;2024-01-15T12:54:46;152.63;;;61.97;;
39924;SDS011;25592;49.986;11.618;2024-01-15T12:57:32;152.13;;;59.27;;
39924;SDS011;25592;49.986;11.618;2024-01-15T13:00:19;152.83;;;59.80;;
39924;SDS011;25592;49.986;11.618;2024-01-15T13:03:06;157.80;;;66.20;;
39924;SDS011;25592;49.986;11.618;2024-01-15T13:05:52;156.13;;;62.97;;
39924;SDS011;25592;49.986;11.618;2024-01-15T13:08:38;155.83;;;61.93;;
39924;SDS011;25592;49.986;11.618;2024-01-15T13:11:23;154.00;;;59.57;;
39924;SDS011;25592;49.986;11.618;2024-01-15T13:14:09;156.33;;;59.70;;
39924;SDS011;25592;49.986;11.618;2024-01-15T13:16:54;154.73;;;57.50;;
39924;SDS011;25592;49.986;11.618;2024-01-15T13:19:40;153.10;;;60.20;;
39924;SDS011;25592;49.986;11.618;2024-01-15T13:22:26;151.63;;;56.93;;
39924;SDS011;25592;49.986;11.618;2024-01-15T13:25:16;159.93;;;60.87;;
39924;SDS011;25592;49.986;11.618;2024-01-15T13:28:02;159.17;;;62.43;;
39924;SDS011;25592;49.986;11.618;2024-01-15T13:30:48;153.77;;;58.10;;
39924;SDS011;25592;49.986;11.618;2024-01-15T13:33:33;156.47;;;60.17;;
39924;SDS011;25592;49.986;11.618;2024-01-15T13:36:19;158.37;;;61.67;;
39924;SDS011;25592;49.986;11.618;2024-01-15T13:39:06;158.13;;;60.27;;
39924;SDS011;25592;49.986;11.618;2024-01-15T13:41:53;154.20;;;57.77;;
39924;SDS011;25592;49.986;11.618;2024-01-15T13:44:39;156.00;;;60.77;;
39924;SDS011;25592;49.986;11.618;2024-01-15T13:47:24;155.83;;;58.43;;
39924;SDS011;25592;49.986;11.618;2024-01-15T13:50:09;156.63;;;59.00;;
39924;SDS011;25592;49.986;11.618;2024-01-15T13:52:55;155.63;;;59.67;;
39924;SDS011;25592;49.986;11.618;2024-01-15T13:55:40;150.77;;;57.47;;
39924;SDS011;25592;49.986;11.618;2024-01-15T13:58:26;151.07;;;57.93;;
39924;SDS011;25592;49.986;11.618;2024-01-15T14:01:12;155.57;;;60.43;;
39924;SDS011;25592;49.986;11.618;2024-01-15T14:03:58;151.03;;;57.93;;
39924;SDS011;25592;49.986;11.618;2024-01-15T14:06:43;155.70;;;59.90;;
39924;SDS011;25592;49.986;11.618;2024-01-15T14:09:29;151.87;;;58.73;;
39924;SDS011;25592;49.986;11.618;2024-01-15T14:12:16;157.23;;;64.57;;
39924;SDS011;25592;49.986;11.618;2024-01-15T14:15:02;153.67;;;59.60;;
39924;SDS011;25592;49.986;11.618;2024-01-15T14:17:48;153.60;;;59.37;;
39924;SDS011;25592;49.986;11.618;2024-01-15T14:20:33;154.57;;;61.27;;
39924;SDS011;25592;49.986;11.618;2024-01-15T14:23:19;156.67;;;61.10;;
39924;SDS011;25592;49.986;11.618;2024-01-15T14:26:05;153.67;;;59.07;;
39924;SDS011;25592;49.986;11.618;2024-01-15T14:28:50;155.33;;;58.80;;
39924;SDS011;25592;49.986;11.618;2024-01-15T14:31:37;153.13;;;59.23;;
39924;SDS011;25592;49.986;11.618;2024-01-15T14:34:23;153.97;;;58.70;;
39924;SDS011;25592;49.986;11.618;2024-01-15T14:37:09;157.47;;;60.17;;
39924;SDS011;25592;49.986;11.618;2024-01-15T14:39:55;156.43;;;60.07;;
39924;SDS011;25592;49.986;11.618;2024-01-15T14:42:41;154.03;;;60.27;;
39924;SDS011;25592;49.986;11.618;2024-01-15T14:45:26;153.00;;;58.20;;
39924;SDS011;25592;49.986;11.618;2024-01-15T14:48:13;151.57;;;56.27;;
39924;SDS011;25592;49.986;11.618;2024-01-15T14:50:58;152.40;;;57.93;;
39924;SDS011;25592;49.986;11.618;2024-01-15T14:53:44;155.30;;;60.97;;
39924;SDS011;25592;49.986;11.618;2024-01-15T14:56:29;153.33;;;58.93;;
39924;SDS011;25592;49.986;11.618;2024-01-15T14:59:16;153.07;;;58.13;;
39924;SDS011;25592;49.986;11.618;2024-01-15T15:02:01;151.67;;;57.77;;
39924;SDS011;25592;49.986;11.618;2024-01-15T15:04:48;152.97;;;59.40;;
39924;SDS011;25592;49.986;11.618;2024-01-15T15:07:34;154.57;;;59.20;;
39924;SDS011;25592;49.986;11.618;2024-01-15T15:10:21;155.00;;;59.67;;
39924;SDS011;25592;49.986;11.618;2024-01-15T15:13:07;155.77;;;60.37;;
39924;SDS011;25592;49.986;11.618;2024-01-15T15:15:53;154.47;;;59.57;;
39924;SDS011;25592;49.986;11.618;2024-01-15T15:18:39;157.63;;;60.57;;
39924;SDS011;25592;49.986;11.618;2024-01-15T15:21:24;156.60;;;60.43;;
39924;SDS011;25592;49.986;11.618;2024-01-15T15:24:10;155.33;;;58.63;;
39924;SDS011;25592;49.986;11.618;2024-01-15T15:26:57;157.67;;;60.33;;
39924;SDS011;25592;49.986;11.618;2024-01-15T15:29:43;157.43;;;60.13;;
39924;SDS011;25592;49.986;11.618;2024-01-15T15:32:29;156.80;;;59.40;;
39924;SDS011;25592;49.986;11.618;2024-01-15T15:35:14;155.67;;;58.53;;
39924;SDS011;25592;49.986;11.618;2024-01-15T15:37:59;166.17;;;60.57;;
39924;SDS011;25592;49.986;11.618;2024-01-15T15:40:45;167.00;;;60.93;;
39924;SDS011;25592;49.986;11.618;2024-01-15T15:43:30;165.23;;;58.23;;
39924;SDS011;25592;49.986;11.618;2024-01-15T15:46:16;165.83;;;58.80;;
39924;SDS011;25592;49.986;11.618;2024-01-15T15:49:01;169.80;;;59.87;;
39924;SDS011;25592;49.986;11.618;2024-01-15T15:51:51;163.57;;;57.00;;
39924;SDS011;25592;49.986;11.618;2024-01-15T15:54:37;153.97;;;58.17;;
39924;SDS011;25592;49.986;11.618;2024-01-15T15:57:22;153.43;;;58.87;;